Time;durP1;ratioP1;P1;durP2;ratioP2;P2;SDS_P1;SDS_P2;PMS_P1;PMS_P2;Temp;Humidity;BMP_temperature;BMP_pressure;BME280_temperature;BME280_humidity;BME280_pressure;Samples;Min_cycle;Max_cycle;Signal;HPM_P1;HPM_P2
2023/05/31 00:00:21;;;;;;;;;;;;;;;;;;5036408;28;19932;-60
2023/05/31 00:02:46;;;;;;;;;;;;;;;;;;5036173;28;19966;-60
2023/05/31 00:05:12;;;;;;;;;;;;;;;;;;5018165;28;20263;-60
2023/05/31 00:07:38;;;;;;;;;;;;;;;;;;5017743;28;19929;-60
2023/05/31 00:10:04;;;;;;;;;;;;;;;;;;5035861;28;19925;-60
2023/05/31 00:12:30;;;;;;;;;;;;;;;;;;5035791;28;19924;-60
2023/05/31 00:14:56;;;;;;;;;;;;;;;;;;5035688;28;19929;-60
2023/05/31 00:17:22;;;;;;;;;;;;;;;;;;5018153;28;19936;-62
2023/05/31 00:19:48;;;;;;;;;;;;;;;;;;5035810;28;20422;-60
2023/05/31 00:22:16;;;;;;;;;;;;;;;;;;5035643;28;19932;-60
2023/05/31 00:24:42;;;;;;;;;;;;;;;;;;5035418;28;19921;-60
2023/05/31 00:27:08;;;;;;;;;;;;;;;;;;5035617;28;19921;-60
2023/05/31 00:29:34;;;;;;;;;;;;;;;;;;5017706;28;19971;-61
2023/05/31 00:32:00;;;;;;;;;;;;;;;;;;5017923;28;19921;-61
2023/05/31 00:34:26;;;;;;;;;;;;;;;;;;5017453;28;19921;-61
2023/05/31 00:36:52;;;;;;;;;;;;;;;;;;5035140;28;20125;-61
2023/05/31 00:39:18;;;;;;;;;;;;;;;;;;5035827;28;20378;-60
2023/05/31 00:41:44;;;;;;;;;;;;;;;;;;5035316;28;19974;-59
2023/05/31 00:44:10;;;;;;;;;;;;;;;;;;5035048;28;19925;-60
2023/05/31 00:46:36;;;;;;;;;;;;;;;;;;5035470;28;20369;-59
2023/05/31 00:49:02;;;;;;;;;;;;;;;;;;5035429;28;19925;-60
2023/05/31 00:51:28;;;;;;;;;;;;;;;;;;5035148;28;20282;-60
2023/05/31 00:53:54;;;;;;;;;;;;;;;;;;5035287;28;19921;-60
2023/05/31 00:56:21;;;;;;;;;;;;;;;;;;5035355;28;19921;-61
2023/05/31 00:58:47;;;;;;;;;;;;;;;;;;5034130;28;19925;-61
2023/05/31 01:01:13;;;;;;;;;;;;;;;;;;5017301;28;20450;-61
2023/05/31 01:03:39;;;;;;;;;;;;;;;;;;5017053;28;19925;-61
2023/05/31 01:06:05;;;;;;;;;;;;;;;;;;5034755;28;19968;-61
2023/05/31 01:08:31;;;;;;;;;;;;;;;;;;5034843;28;19963;-61
2023/05/31 01:10:57;;;;;;;;;;;;;;;;;;5034723;28;19935;-61
2023/05/31 01:13:23;;;;;;;;;;;;;;;;;;5033876;28;19948;-62
2023/05/31 01:15:49;;;;;;;;;;;;;;;;;;5034057;28;19928;-60
2023/05/31 01:18:18;;;;;;;;;;;;;;;;;;5033842;28;19932;-61
2023/05/31 01:20:46;;;;;;;;;;;;;;;;;;5033720;28;20294;-61
2023/05/31 01:23:13;;;;;;;;;;;;;;;;;;5033682;28;19925;-61
2023/05/31 01:25:39;;;;;;;;;;;;;;;;;;5034051;28;19924;-61
2023/05/31 01:28:06;;;;;;;;;;;;;;;;;;5034100;28;19921;-60
2023/05/31 01:30:32;;;;;;;;;;;;;;;;;;5034009;28;20398;-61
2023/05/31 01:32:57;;;;;;;;;;;;;;;;;;5033676;28;19984;-60
2023/05/31 01:35:23;;;;;;;;;;;;;;;;;;5033735;28;19921;-61
2023/05/31 01:37:50;;;;;;;;;;;;;;;;;;5033580;28;19932;-61
2023/05/31 01:40:15;;;;;;;;;;;;;;;;;;5016271;28;19921;-61
2023/05/31 01:42:41;;;;;;;;;;;;;;;;;;5013525;28;20393;-61
2023/05/31 01:45:07;;;;;;;;;;;;;;;;;;4995973;28;19928;-61
2023/05/31 01:47:33;;;;;;;;;;;;;;;;;;5013960;28;19925;-61
2023/05/31 01:49:59;;;;;;;;;;;;;;;;;;5013369;28;19944;-61
2023/05/31 01:52:25;;;;;;;;;;;;;;;;;;4995809;28;20004;-61
2023/05/31 01:54:51;;;;;;;;;;;;;;;;;;5013154;28;20314;-61
2023/05/31 01:57:17;;;;;;;;;;;;;;;;;;5013288;28;19929;-61
2023/05/31 01:59:43;;;;;;;;;;;;;;;;;;5013285;28;19953;-61
2023/05/31 02:02:09;;;;;;;;;;;;;;;;;;5013430;28;20020;-61
2023/05/31 02:04:35;;;;;;;;;;;;;;;;;;5013904;28;20377;-61
2023/05/31 02:07:00;;;;;;;;;;;;;;;;;;4979888;28;19979;-61
2023/05/31 02:09:26;;;;;;;;;;;;;;;;;;5013513;28;19950;-61
2023/05/31 02:11:52;;;;;;;;;;;;;;;;;;5014089;28;20359;-61
2023/05/31 02:14:18;;;;;;;;;;;;;;;;;;5013909;28;19921;-61
2023/05/31 02:16:44;;;;;;;;;;;;;;;;;;4996355;28;19927;-61
2023/05/31 02:19:13;;;;;;;;;;;;;;;;;;4996055;28;19925;-61
2023/05/31 02:21:39;;;;;;;;;;;;;;;;;;5013498;28;20356;-61
2023/05/31 02:24:05;;;;;;;;;;;;;;;;;;5013635;28;19922;-61
2023/05/31 02:26:31;;;;;;;;;;;;;;;;;;5013840;28;19925;-61
2023/05/31 02:28:57;;;;;;;;;;;;;;;;;;4996147;28;19921;-61
2023/05/31 02:31:23;;;;;;;;;;;;;;;;;;5013599;28;19932;-61
2023/05/31 02:33:48;;;;;;;;;;;;;;;;;;5013515;28;19925;-61
2023/05/31 02:36:14;;;;;;;;;;;;;;;;;;5013365;28;19925;-61
2023/05/31 02:38:40;;;;;;;;;;;;;;;;;;5013097;28;19996;-61
2023/05/31 02:41:06;;;;;;;;;;;;;;;;;;5013260;28;19921;-61
2023/05/31 02:43:32;;;;;;;;;;;;;;;;;;5013492;28;19921;-61
2023/05/31 02:46:01;;;;;;;;;;;;;;;;;;5013286;28;20375;-60
2023/05/31 02:48:27;;;;;;;;;;;;;;;;;;4995841;28;20287;-60
2023/05/31 02:50:53;;;;;;;;;;;;;;;;;;5013309;28;19921;-60
2023/05/31 02:53:19;;;;;;;;;;;;;;;;;;4995594;28;19933;-60
2023/05/31 02:55:44;;;;;;;;;;;;;;;;;;5013124;28;20394;-61
2023/05/31 02:58:11;;;;;;;;;;;;;;;;;;5012846;28;19930;-60
2023/05/31 03:00:37;;;;;;;;;;;;;;;;;;4995336;28;19932;-60
2023/05/31 03:03:03;;;;;;;;;;;;;;;;;;5013172;28;19925;-60
2023/05/31 03:05:29;;;;;;;;;;;;;;;;;;4995272;28;19925;-60
2023/05/31 03:07:55;;;;;;;;;;;;;;;;;;5013002;28;20055;-60
2023/05/31 03:10:21;;;;;;;;;;;;;;;;;;5012750;28;19933;-60
2023/05/31 03:12:47;;;;;;;;;;;;;;;;;;5013195;28;19927;-60
2023/05/31 03:15:13;;;;;;;;;;;;;;;;;;5012732;28;19927;-62
2023/05/31 03:17:39;;;;;;;;;;;;;;;;;;5012896;28;19926;-60
2023/05/31 03:20:06;;;;;;;;;;;;;;;;;;5011861;28;20463;-60
2023/05/31 03:22:32;;;;;;;;;;;;;;;;;;5012707;28;19921;-60
2023/05/31 03:24:57;;;;;;;;;;;;;;;;;;5012633;28;19921;-61
2023/05/31 03:27:23;;;;;;;;;;;;;;;;;;5012795;28;19973;-61
2023/05/31 03:29:49;;;;;;;;;;;;;;;;;;4994340;28;19921;-61
2023/05/31 03:32:15;;;;;;;;;;;;;;;;;;4995100;28;19971;-61
2023/05/31 03:34:41;;;;;;;;;;;;;;;;;;5012444;28;19956;-61
2023/05/31 03:37:07;;;;;;;;;;;;;;;;;;5011916;28;19935;-61
2023/05/31 03:39:33;;;;;;;;;;;;;;;;;;5012706;28;19926;-61
2023/05/31 03:41:59;;;;;;;;;;;;;;;;;;4994687;28;19921;-61
2023/05/31 03:44:25;;;;;;;;;;;;;;;;;;5011855;28;19928;-61
2023/05/31 03:46:51;;;;;;;;;;;;;;;;;;4994099;28;19925;-61
2023/05/31 03:49:17;;;;;;;;;;;;;;;;;;5011821;28;19922;-62
2023/05/31 03:51:43;;;;;;;;;;;;;;;;;;5011853;28;20051;-61
2023/05/31 03:54:09;;;;;;;;;;;;;;;;;;4994070;28;20452;-62
2023/05/31 03:56:35;;;;;;;;;;;;;;;;;;5011883;28;19931;-62
2023/05/31 03:59:01;;;;;;;;;;;;;;;;;;5011600;28;19925;-61
2023/05/31 04:01:27;;;;;;;;;;;;;;;;;;5011838;28;19927;-62
2023/05/31 04:03:52;;;;;;;;;;;;;;;;;;5011859;28;19926;-62
2023/05/31 04:06:18;;;;;;;;;;;;;;;;;;5010703;28;20383;-62
2023/05/31 04:08:44;;;;;;;;;;;;;;;;;;5011152;28;19925;-62
2023/05/31 04:11:10;;;;;;;;;;;;;;;;;;4993497;28;20370;-62
2023/05/31 04:13:36;;;;;;;;;;;;;;;;;;5011043;28;19932;-61
2023/05/31 04:16:02;;;;;;;;;;;;;;;;;;4993351;28;19925;-62
2023/05/31 04:18:28;;;;;;;;;;;;;;;;;;4993379;28;19969;-61
2023/05/31 04:20:54;;;;;;;;;;;;;;;;;;5010856;28;19984;-62
2023/05/31 04:23:21;;;;;;;;;;;;;;;;;;5010971;28;19936;-62
2023/05/31 04:25:47;;;;;;;;;;;;;;;;;;5011074;28;19929;-62
2023/05/31 04:28:15;;;;;;;;;;;;;;;;;;4977734;28;19922;-62
2023/05/31 04:30:41;;;;;;;;;;;;;;;;;;4993708;28;19929;-62
2023/05/31 04:33:07;;;;;;;;;;;;;;;;;;5012845;28;19967;-61
2023/05/31 04:35:33;;;;;;;;;;;;;;;;;;5014205;28;20347;-61
2023/05/31 04:38:00;;;;;;;;;;;;;;;;;;4996665;28;19932;-61
2023/05/31 04:40:26;;;;;;;;;;;;;;;;;;5014188;28;19952;-61
2023/05/31 04:42:51;;;;;;;;;;;;;;;;;;4996378;28;19921;-61
2023/05/31 04:45:17;;;;;;;;;;;;;;;;;;5014114;28;20443;-62
2023/05/31 04:47:45;;;;;;;;;;;;;;;;;;5014104;28;19928;-62
2023/05/31 04:50:11;;;;;;;;;;;;;;;;;;5013962;28;19929;-61
2023/05/31 04:52:39;;;;;;;;;;;;;;;;;;5014566;28;19925;-61
2023/05/31 04:55:05;;;;;;;;;;;;;;;;;;4996978;28;19980;-62
2023/05/31 04:57:32;;;;;;;;;;;;;;;;;;5014177;28;20035;-61
2023/05/31 04:59:57;;;;;;;;;;;;;;;;;;5013715;28;19928;-61
2023/05/31 05:02:23;;;;;;;;;;;;;;;;;;5013407;28;19925;-61
2023/05/31 05:04:49;;;;;;;;;;;;;;;;;;4995982;28;19925;-61
2023/05/31 05:07:16;;;;;;;;;;;;;;;;;;5013587;28;20393;-61
2023/05/31 05:09:42;;;;;;;;;;;;;;;;;;5013713;28;19928;-61
2023/05/31 05:12:08;;;;;;;;;;;;;;;;;;5013655;28;19925;-62
2023/05/31 05:14:33;;;;;;;;;;;;;;;;;;4995653;28;19990;-62
2023/05/31 05:16:59;;;;;;;;;;;;;;;;;;5013590;28;19921;-61
2023/05/31 05:19:25;;;;;;;;;;;;;;;;;;5014041;28;19921;-62
2023/05/31 05:21:51;;;;;;;;;;;;;;;;;;5014189;28;20335;-61
2023/05/31 05:24:17;;;;;;;;;;;;;;;;;;5014204;28;19921;-61
2023/05/31 05:26:43;;;;;;;;;;;;;;;;;;5013697;28;20375;-61
2023/05/31 05:29:09;;;;;;;;;;;;;;;;;;5013982;28;19975;-61
2023/05/31 05:31:35;;;;;;;;;;;;;;;;;;5013623;28;19968;-62
2023/05/31 05:34:01;;;;;;;;;;;;;;;;;;5013741;28;19991;-61
2023/05/31 05:36:27;;;;;;;;;;;;;;;;;;5013894;28;19921;-61
2023/05/31 05:38:53;;;;;;;;;;;;;;;;;;5013502;28;19933;-61
2023/05/31 05:41:19;;;;;;;;;;;;;;;;;;5013720;28;19925;-61
2023/05/31 05:43:45;;;;;;;;;;;;;;;;;;5013114;28;19921;-62
2023/05/31 05:46:10;;;;;;;;;;;;;;;;;;4995576;28;20338;-62
2023/05/31 05:48:36;;;;;;;;;;;;;;;;;;4995369;28;19921;-62
2023/05/31 05:51:03;;;;;;;;;;;;;;;;;;5013377;28;19932;-62
2023/05/31 05:53:29;;;;;;;;;;;;;;;;;;4995317;28;19943;-63
2023/05/31 05:55:55;;;;;;;;;;;;;;;;;;5013299;28;20023;-62
2023/05/31 05:58:21;;;;;;;;;;;;;;;;;;5012951;28;19971;-61
2023/05/31 06:00:47;;;;;;;;;;;;;;;;;;5012805;28;19921;-61
2023/05/31 06:03:13;;;;;;;;;;;;;;;;;;4995085;28;19929;-62
2023/05/31 06:05:39;;;;;;;;;;;;;;;;;;5012692;28;20315;-61
2023/05/31 06:08:05;;;;;;;;;;;;;;;;;;5012251;28;19921;-61
2023/05/31 06:10:31;;;;;;;;;;;;;;;;;;4994611;28;19928;-62
2023/05/31 06:12:57;;;;;;;;;;;;;;;;;;5027013;28;20330;-62
2023/05/31 06:15:23;;;;;;;;;;;;;;;;;;5032047;28;19979;-61
2023/05/31 06:17:49;;;;;;;;;;;;;;;;;;5032070;28;19925;-62
2023/05/31 06:20:16;;;;;;;;;;;;;;;;;;5032652;28;19921;-62
2023/05/31 06:22:42;;;;;;;;;;;;;;;;;;5031857;28;19922;-62
2023/05/31 06:25:08;;;;;;;;;;;;;;;;;;5014021;28;20286;-62
2023/05/31 06:27:34;;;;;;;;;;;;;;;;;;5031813;28;19929;-62
2023/05/31 06:30:00;;;;;;;;;;;;;;;;;;5031594;28;19975;-62
2023/05/31 06:32:26;;;;;;;;;;;;;;;;;;5031947;28;19928;-61
2023/05/31 06:34:52;;;;;;;;;;;;;;;;;;4997370;28;19922;-61
2023/05/31 06:37:18;;;;;;;;;;;;;;;;;;5031799;28;19929;-61
2023/05/31 06:39:44;;;;;;;;;;;;;;;;;;5013541;28;20291;-61
2023/05/31 06:42:11;;;;;;;;;;;;;;;;;;5031498;28;19925;-62
2023/05/31 06:44:37;;;;;;;;;;;;;;;;;;5031451;28;19982;-61
2023/05/31 06:47:03;;;;;;;;;;;;;;;;;;5013606;28;20021;-61
2023/05/31 06:49:29;;;;;;;;;;;;;;;;;;5013339;28;20392;-61
2023/05/31 06:51:57;;;;;;;;;;;;;;;;;;5013466;28;19931;-62
2023/05/31 06:54:23;;;;;;;;;;;;;;;;;;5013249;28;19936;-62
2023/05/31 06:56:49;;;;;;;;;;;;;;;;;;5012798;28;19925;-62
2023/05/31 06:59:15;;;;;;;;;;;;;;;;;;5031645;28;19921;-62
2023/05/31 07:01:40;;;;;;;;;;;;;;;;;;5032039;28;19964;-60
2023/05/31 07:04:06;;;;;;;;;;;;;;;;;;5031745;28;20293;-61
2023/05/31 07:06:32;;;;;;;;;;;;;;;;;;5031833;28;19935;-61
2023/05/31 07:08:58;;;;;;;;;;;;;;;;;;5031385;28;19996;-61
2023/05/31 07:11:24;;;;;;;;;;;;;;;;;;5030971;28;20386;-61
2023/05/31 07:13:50;;;;;;;;;;;;;;;;;;5013400;28;19929;-61
2023/05/31 07:16:16;;;;;;;;;;;;;;;;;;5031947;28;20005;-62
2023/05/31 07:18:42;;;;;;;;;;;;;;;;;;5013771;28;19971;-60
2023/05/31 07:21:08;;;;;;;;;;;;;;;;;;5030847;28;19921;-61
2023/05/31 07:23:34;;;;;;;;;;;;;;;;;;5030946;28;19932;-62
2023/05/31 07:26:02;;;;;;;;;;;;;;;;;;5031647;28;19921;-62
2023/05/31 07:28:28;;;;;;;;;;;;;;;;;;5013494;28;20352;-62
2023/05/31 07:30:54;;;;;;;;;;;;;;;;;;5031635;28;20007;-61
2023/05/31 07:33:20;;;;;;;;;;;;;;;;;;5032584;28;19952;-60
2023/05/31 07:35:46;;;;;;;;;;;;;;;;;;5032570;28;20240;-61
2023/05/31 07:38:12;;;;;;;;;;;;;;;;;;5032357;28;19925;-61
2023/05/31 07:40:38;;;;;;;;;;;;;;;;;;5032297;28;19921;-60
2023/05/31 07:43:04;;;;;;;;;;;;;;;;;;5032516;28;19931;-61
2023/05/31 07:45:30;;;;;;;;;;;;;;;;;;5014639;28;20389;-61
2023/05/31 07:47:56;;;;;;;;;;;;;;;;;;5032567;28;19921;-61
2023/05/31 07:50:22;;;;;;;;;;;;;;;;;;5014406;28;19933;-61
2023/05/31 07:52:49;;;;;;;;;;;;;;;;;;5032379;28;19921;-61
2023/05/31 07:55:16;;;;;;;;;;;;;;;;;;5032249;28;19921;-61
2023/05/31 07:57:42;;;;;;;;;;;;;;;;;;5032270;28;20020;-61
2023/05/31 08:00:08;;;;;;;;;;;;;;;;;;5032631;28;20010;-61
2023/05/31 08:02:34;;;;;;;;;;;;;;;;;;5032570;28;19922;-61
2023/05/31 08:05:01;;;;;;;;;;;;;;;;;;5014202;28;19935;-61
2023/05/31 08:07:27;;;;;;;;;;;;;;;;;;5034502;28;20394;-61
2023/05/31 08:09:53;;;;;;;;;;;;;;;;;;5018116;28;19925;-60
2023/05/31 08:12:19;;;;;;;;;;;;;;;;;;5036260;28;19928;-60
2023/05/31 08:14:45;;;;;;;;;;;;;;;;;;5018016;28;20359;-60
2023/05/31 08:17:11;;;;;;;;;;;;;;;;;;5035868;28;19971;-60
2023/05/31 08:19:37;;;;;;;;;;;;;;;;;;5035919;28;19925;-60
2023/05/31 08:22:04;;;;;;;;;;;;;;;;;;5017892;28;20362;-60
2023/05/31 08:24:30;;;;;;;;;;;;;;;;;;5036179;28;19952;-60
2023/05/31 08:26:56;;;;;;;;;;;;;;;;;;5035677;28;19964;-61
2023/05/31 08:29:22;;;;;;;;;;;;;;;;;;5035754;28;19925;-60
2023/05/31 08:31:48;;;;;;;;;;;;;;;;;;5035690;28;19932;-60
2023/05/31 08:34:14;;;;;;;;;;;;;;;;;;5035716;28;19967;-61
2023/05/31 08:36:40;;;;;;;;;;;;;;;;;;5035737;28;19964;-61
2023/05/31 08:39:07;;;;;;;;;;;;;;;;;;5018124;28;19975;-61
2023/05/31 08:41:35;;;;;;;;;;;;;;;;;;5035797;28;19964;-61
2023/05/31 08:44:01;;;;;;;;;;;;;;;;;;5035782;28;20011;-61
2023/05/31 08:46:26;;;;;;;;;;;;;;;;;;5001324;28;20007;-61
2023/05/31 08:48:52;;;;;;;;;;;;;;;;;;5035273;28;19925;-59
2023/05/31 08:51:18;;;;;;;;;;;;;;;;;;5035300;28;19974;-60
2023/05/31 08:53:44;;;;;;;;;;;;;;;;;;5035501;28;19921;-60
2023/05/31 08:56:10;;;;;;;;;;;;;;;;;;5035126;28;19998;-60
2023/05/31 08:58:36;;;;;;;;;;;;;;;;;;5035395;28;20012;-60
2023/05/31 09:01:02;;;;;;;;;;;;;;;;;;5035210;28;20278;-60
2023/05/31 09:03:28;;;;;;;;;;;;;;;;;;5017399;28;19921;-60
2023/05/31 09:05:54;;;;;;;;;;;;;;;;;;5016427;28;19926;-60
2023/05/31 09:08:20;;;;;;;;;;;;;;;;;;5034616;28;19968;-60
2023/05/31 09:10:46;;;;;;;;;;;;;;;;;;5017089;28;20417;-61
2023/05/31 09:13:12;;;;;;;;;;;;;;;;;;5017043;28;19993;-60
2023/05/31 09:15:38;;;;;;;;;;;;;;;;;;5034437;28;19921;-61
2023/05/31 09:18:03;;;;;;;;;;;;;;;;;;5034306;28;20020;-61
2023/05/31 09:20:29;;;;;;;;;;;;;;;;;;5056648;22;19932;-63
2023/05/31 09:22:55;;;;;;;;;;;;;;;;;;5073299;28;20571;-63
2023/05/31 09:25:21;;;;;;;;;;;;;;;;;;5073463;28;19921;-61
2023/05/31 09:27:47;;;;;;;;;;;;;;;;;;5073398;28;19920;-62
2023/05/31 09:30:13;;;;;;;;;;;;;;;;;;5073313;28;19967;-62
2023/05/31 09:32:39;;;;;;;;;;;;;;;;;;5073314;28;19928;-62
2023/05/31 09:35:05;;;;;;;;;;;;;;;;;;5073536;28;20348;-62
2023/05/31 09:37:31;;;;;;;;;;;;;;;;;;5073212;28;19928;-62
2023/05/31 09:39:57;;;;;;;;;;;;;;;;;;5055599;28;19924;-62
2023/05/31 09:42:23;;;;;;;;;;;;;;;;;;5073551;28;19924;-62
2023/05/31 09:44:49;;;;;;;;;;;;;;;;;;5073370;28;19921;-62
2023/05/31 09:47:15;;;;;;;;;;;;;;;;;;5073400;28;19920;-62
2023/05/31 09:49:41;;;;;;;;;;;;;;;;;;5073255;28;19928;-62
2023/05/31 09:52:07;;;;;;;;;;;;;;;;;;5073084;28;20344;-62
2023/05/31 09:54:33;;;;;;;;;;;;;;;;;;5073233;28;19924;-62
2023/05/31 09:56:59;;;;;;;;;;;;;;;;;;5073188;28;20630;-62
2023/05/31 09:59:25;;;;;;;;;;;;;;;;;;5073118;28;19925;-63
2023/05/31 10:01:50;;;;;;;;;;;;;;;;;;5073100;28;19924;-62
2023/05/31 10:04:16;;;;;;;;;;;;;;;;;;5055001;28;20354;-62
2023/05/31 10:06:42;;;;;;;;;;;;;;;;;;5054898;28;20431;-62
2023/05/31 10:09:08;;;;;;;;;;;;;;;;;;5072871;28;19924;-62
2023/05/31 10:11:34;;;;;;;;;;;;;;;;;;5054832;28;19931;-62
2023/05/31 10:14:00;;;;;;;;;;;;;;;;;;5072933;28;19955;-62
2023/05/31 10:16:26;;;;;;;;;;;;;;;;;;5072903;28;19925;-62
2023/05/31 10:18:54;;;;;;;;;;;;;;;;;;5037897;28;19925;-62
2023/05/31 10:21:23;;;;;;;;;;;;;;;;;;5054548;28;20285;-63
2023/05/31 10:23:49;;;;;;;;;;;;;;;;;;5072794;28;19962;-63
2023/05/31 10:26:17;;;;;;;;;;;;;;;;;;5054866;28;19925;-63
2023/05/31 10:28:43;;;;;;;;;;;;;;;;;;5072364;28;19920;-63
2023/05/31 10:31:11;;;;;;;;;;;;;;;;;;5054758;28;19973;-63
2023/05/31 10:33:36;;;;;;;;;;;;;;;;;;5072588;28;19920;-63
2023/05/31 10:36:02;;;;;;;;;;;;;;;;;;5072398;28;20388;-62
2023/05/31 10:38:28;;;;;;;;;;;;;;;;;;5072317;28;19929;-62
2023/05/31 10:40:54;;;;;;;;;;;;;;;;;;5072542;28;19920;-62
2023/05/31 10:43:20;;;;;;;;;;;;;;;;;;5072210;28;19927;-63
2023/05/31 10:45:46;;;;;;;;;;;;;;;;;;5072407;28;20380;-63
2023/05/31 10:48:12;;;;;;;;;;;;;;;;;;5072104;28;19924;-62
2023/05/31 10:50:38;;;;;;;;;;;;;;;;;;5072103;28;20009;-63
2023/05/31 10:53:04;;;;;;;;;;;;;;;;;;5072073;28;19959;-62
2023/05/31 10:55:30;;;;;;;;;;;;;;;;;;5071743;28;19924;-62
2023/05/31 10:57:56;;;;;;;;;;;;;;;;;;5053708;28;19924;-63
2023/05/31 11:00:24;;;;;;;;;;;;;;;;;;5071175;28;22245;-62
2023/05/31 11:02:50;;;;;;;;;;;;;;;;;;5054275;28;20007;-63
2023/05/31 11:05:15;;;;;;;;;;;;;;;;;;5071885;28;20361;-62
2023/05/31 11:07:41;;;;;;;;;;;;;;;;;;5072027;28;19993;-62
2023/05/31 11:10:10;;;;;;;;;;;;;;;;;;5072206;28;19924;-62
2023/05/31 11:12:36;;;;;;;;;;;;;;;;;;5071918;28;19962;-62
2023/05/31 11:15:03;;;;;;;;;;;;;;;;;;5071951;28;19929;-61
2023/05/31 11:17:29;;;;;;;;;;;;;;;;;;5071842;28;19979;-62
2023/05/31 11:19:55;;;;;;;;;;;;;;;;;;5053743;28;19925;-62
2023/05/31 11:22:21;;;;;;;;;;;;;;;;;;5072064;28;19974;-62
2023/05/31 11:24:53;;;;;;;;;;;;;;;;;;5071885;28;19971;-61
2023/05/31 11:27:19;;;;;;;;;;;;;;;;;;5072016;28;19925;-62
2023/05/31 11:29:48;;;;;;;;;;;;;;;;;;5072007;28;19956;-62
2023/05/31 11:32:14;;;;;;;;;;;;;;;;;;5071907;28;20321;-62
2023/05/31 11:34:40;;;;;;;;;;;;;;;;;;5053637;28;20007;-62
2023/05/31 11:37:06;;;;;;;;;;;;;;;;;;5071367;28;20003;-62
2023/05/31 11:39:32;;;;;;;;;;;;;;;;;;5053491;28;19929;-62
2023/05/31 11:41:58;;;;;;;;;;;;;;;;;;5055236;28;20396;-62
2023/05/31 11:44:24;;;;;;;;;;;;;;;;;;5057657;28;19963;-62
2023/05/31 11:46:50;;;;;;;;;;;;;;;;;;5075661;28;19927;-62
2023/05/31 11:49:16;;;;;;;;;;;;;;;;;;5075647;28;19921;-62
2023/05/31 11:51:42;;;;;;;;;;;;;;;;;;5075723;28;20317;-62
2023/05/31 11:54:08;;;;;;;;;;;;;;;;;;5075683;28;20419;-62
2023/05/31 11:56:36;;;;;;;;;;;;;;;;;;5075789;28;19927;-62
2023/05/31 11:59:02;;;;;;;;;;;;;;;;;;5075555;28;19932;-62
2023/05/31 12:01:28;;;;;;;;;;;;;;;;;;5075486;28;19921;-62
2023/05/31 12:03:54;;;;;;;;;;;;;;;;;;5075335;28;19931;-62
2023/05/31 12:06:21;;;;;;;;;;;;;;;;;;5075451;28;19920;-62
2023/05/31 12:08:47;;;;;;;;;;;;;;;;;;5057194;28;19924;-62
2023/05/31 12:11:13;;;;;;;;;;;;;;;;;;5057222;28;20324;-62
2023/05/31 12:13:39;;;;;;;;;;;;;;;;;;5075181;28;19972;-62
2023/05/31 12:16:05;;;;;;;;;;;;;;;;;;5074901;28;19946;-62
2023/05/31 12:18:31;;;;;;;;;;;;;;;;;;5057042;28;20484;-62
2023/05/31 12:20:57;;;;;;;;;;;;;;;;;;5074630;28;20373;-62
2023/05/31 12:23:23;;;;;;;;;;;;;;;;;;5074563;28;20065;-62
2023/05/31 12:25:49;;;;;;;;;;;;;;;;;;5074562;28;19956;-62
2023/05/31 12:28:15;;;;;;;;;;;;;;;;;;5074933;28;19920;-62
2023/05/31 12:30:41;;;;;;;;;;;;;;;;;;5074314;28;19982;-62
2023/05/31 12:33:07;;;;;;;;;;;;;;;;;;5074298;28;19920;-63
2023/05/31 12:35:33;;;;;;;;;;;;;;;;;;5056515;28;19928;-62
2023/05/31 12:37:58;;;;;;;;;;;;;;;;;;5074172;28;19982;-62
2023/05/31 12:40:25;;;;;;;;;;;;;;;;;;5074523;28;19920;-62
2023/05/31 12:42:50;;;;;;;;;;;;;;;;;;5056386;28;20003;-62
2023/05/31 12:45:16;;;;;;;;;;;;;;;;;;5056570;28;20329;-62
2023/05/31 12:47:42;;;;;;;;;;;;;;;;;;5074599;28;19946;-62
2023/05/31 12:50:08;;;;;;;;;;;;;;;;;;5074236;28;19924;-62
2023/05/31 12:52:34;;;;;;;;;;;;;;;;;;5055878;28;19927;-62
2023/05/31 12:55:04;;;;;;;;;;;;;;;;;;5038789;28;19925;-62
2023/05/31 12:57:30;;;;;;;;;;;;;;;;;;5074199;28;19932;-62
2023/05/31 12:59:56;;;;;;;;;;;;;;;;;;5074280;28;19968;-62
2023/05/31 13:02:22;;;;;;;;;;;;;;;;;;5074392;28;20333;-62
2023/05/31 13:04:48;;;;;;;;;;;;;;;;;;5074115;28;19920;-63
2023/05/31 13:07:13;;;;;;;;;;;;;;;;;;5074198;28;20018;-62
2023/05/31 13:09:39;;;;;;;;;;;;;;;;;;5073827;28;20289;-62
2023/05/31 13:12:06;;;;;;;;;;;;;;;;;;5074259;28;19931;-63
2023/05/31 13:14:32;;;;;;;;;;;;;;;;;;5074018;28;19928;-62
2023/05/31 13:16:58;;;;;;;;;;;;;;;;;;5074172;28;20243;-62
2023/05/31 13:19:24;;;;;;;;;;;;;;;;;;5055882;28;19932;-62
2023/05/31 13:21:50;;;;;;;;;;;;;;;;;;5073635;28;20141;-62
2023/05/31 13:24:16;;;;;;;;;;;;;;;;;;5074159;28;20008;-62
2023/05/31 13:26:42;;;;;;;;;;;;;;;;;;5073811;28;19963;-62
2023/05/31 13:29:08;;;;;;;;;;;;;;;;;;5073695;28;20002;-62
2023/05/31 13:31:34;;;;;;;;;;;;;;;;;;5073791;28;19921;-62
2023/05/31 13:34:00;;;;;;;;;;;;;;;;;;5055754;28;19927;-62
2023/05/31 13:36:26;;;;;;;;;;;;;;;;;;5073794;28;19924;-62
2023/05/31 13:38:52;;;;;;;;;;;;;;;;;;5073498;28;19931;-62
2023/05/31 13:41:18;;;;;;;;;;;;;;;;;;5073364;28;19920;-62
2023/05/31 13:43:44;;;;;;;;;;;;;;;;;;5073403;28;19924;-62
2023/05/31 13:46:11;;;;;;;;;;;;;;;;;;5038511;28;20027;-62
2023/05/31 13:48:37;;;;;;;;;;;;;;;;;;5073300;28;19920;-62
2023/05/31 13:51:03;;;;;;;;;;;;;;;;;;5073376;28;19925;-62
2023/05/31 13:53:29;;;;;;;;;;;;;;;;;;5073383;28;19920;-62
2023/05/31 13:55:55;;;;;;;;;;;;;;;;;;5073376;28;19920;-62
2023/05/31 13:58:21;;;;;;;;;;;;;;;;;;5072929;28;20306;-62
2023/05/31 14:00:47;;;;;;;;;;;;;;;;;;5073142;28;19924;-63
2023/05/31 14:03:13;;;;;;;;;;;;;;;;;;5054988;28;19920;-62
2023/05/31 14:05:39;;;;;;;;;;;;;;;;;;5072562;28;20312;-62
2023/05/31 14:08:06;;;;;;;;;;;;;;;;;;5055369;28;19928;-63
2023/05/31 14:10:32;;;;;;;;;;;;;;;;;;5072781;28;19920;-62
2023/05/31 14:12:58;;;;;;;;;;;;;;;;;;5073093;28;19926;-62
2023/05/31 14:15:23;;;;;;;;;;;;;;;;;;5072820;28;19924;-63
2023/05/31 14:17:49;;;;;;;;;;;;;;;;;;5072644;28;19928;-63
2023/05/31 14:20:15;;;;;;;;;;;;;;;;;;5072772;28;19925;-62
2023/05/31 14:22:41;;;;;;;;;;;;;;;;;;5072567;28;19978;-63
2023/05/31 14:25:07;;;;;;;;;;;;;;;;;;5072574;28;20329;-62
2023/05/31 14:27:33;;;;;;;;;;;;;;;;;;5054367;28;19920;-62
2023/05/31 14:29:59;;;;;;;;;;;;;;;;;;5054545;28;19924;-62
2023/05/31 14:32:25;;;;;;;;;;;;;;;;;;5054547;28;19964;-63
2023/05/31 14:34:51;;;;;;;;;;;;;;;;;;5072631;28;19982;-63
2023/05/31 14:37:17;;;;;;;;;;;;;;;;;;5072458;28;19920;-62
2023/05/31 14:39:43;;;;;;;;;;;;;;;;;;5072470;28;20393;-62
2023/05/31 14:42:09;;;;;;;;;;;;;;;;;;5054384;28;19925;-62
2023/05/31 14:44:38;;;;;;;;;;;;;;;;;;5054558;28;19965;-63
2023/05/31 14:47:04;;;;;;;;;;;;;;;;;;5054168;28;19920;-63
2023/05/31 14:49:30;;;;;;;;;;;;;;;;;;5072433;28;19921;-63
2023/05/31 14:51:57;;;;;;;;;;;;;;;;;;5072002;28;19931;-62
2023/05/31 14:54:23;;;;;;;;;;;;;;;;;;5072157;28;20005;-61
2023/05/31 14:56:49;;;;;;;;;;;;;;;;;;5072272;28;20022;-61
2023/05/31 14:59:15;;;;;;;;;;;;;;;;;;5072025;28;19932;-61
2023/05/31 15:01:42;;;;;;;;;;;;;;;;;;5054097;28;19928;-61
2023/05/31 15:04:08;;;;;;;;;;;;;;;;;;5072208;28;20014;-61
2023/05/31 15:06:35;;;;;;;;;;;;;;;;;;5071770;28;20030;-61
2023/05/31 15:09:02;;;;;;;;;;;;;;;;;;5072112;28;19928;-61
2023/05/31 15:11:27;;;;;;;;;;;;;;;;;;5072010;28;20009;-60
2023/05/31 15:13:53;;;;;;;;;;;;;;;;;;5072009;28;20033;-60
2023/05/31 15:16:20;;;;;;;;;;;;;;;;;;5053120;28;19924;-63
2023/05/31 15:18:46;;;;;;;;;;;;;;;;;;5071879;28;19931;-63
2023/05/31 15:21:12;;;;;;;;;;;;;;;;;;5071760;28;19931;-63
2023/05/31 15:23:38;;;;;;;;;;;;;;;;;;5071713;28;19924;-63
2023/05/31 15:26:04;;;;;;;;;;;;;;;;;;5053579;28;19920;-64
2023/05/31 15:28:30;;;;;;;;;;;;;;;;;;5071970;28;19928;-64
2023/05/31 15:30:57;;;;;;;;;;;;;;;;;;5072039;28;19924;-64
2023/05/31 15:33:23;;;;;;;;;;;;;;;;;;5071820;28;19960;-63
2023/05/31 15:35:48;;;;;;;;;;;;;;;;;;5071662;28;19986;-64
2023/05/31 15:38:14;;;;;;;;;;;;;;;;;;5071458;28;20563;-63
2023/05/31 15:40:40;;;;;;;;;;;;;;;;;;5071901;28;19971;-64
2023/05/31 15:43:06;;;;;;;;;;;;;;;;;;5053457;28;19921;-64
2023/05/31 15:45:32;;;;;;;;;;;;;;;;;;5071839;28;20388;-64
2023/05/31 15:47:58;;;;;;;;;;;;;;;;;;5071460;28;19924;-64
2023/05/31 15:50:24;;;;;;;;;;;;;;;;;;5071476;28;20029;-63
2023/05/31 15:52:50;;;;;;;;;;;;;;;;;;5071578;28;19921;-63
2023/05/31 15:55:16;;;;;;;;;;;;;;;;;;5071168;28;19967;-63
2023/05/31 15:57:42;;;;;;;;;;;;;;;;;;5071422;28;20614;-63
2023/05/31 16:00:08;;;;;;;;;;;;;;;;;;5053350;28;19931;-63
2023/05/31 16:02:33;;;;;;;;;;;;;;;;;;5071427;28;19993;-63
2023/05/31 16:04:59;;;;;;;;;;;;;;;;;;5071454;28;19927;-63
2023/05/31 16:07:25;;;;;;;;;;;;;;;;;;5071508;28;19924;-64
2023/05/31 16:09:53;;;;;;;;;;;;;;;;;;5071295;28;20023;-64
2023/05/31 16:12:18;;;;;;;;;;;;;;;;;;5071393;28;19920;-64
2023/05/31 16:14:44;;;;;;;;;;;;;;;;;;5071253;28;19924;-64
2023/05/31 16:17:10;;;;;;;;;;;;;;;;;;5053193;28;19920;-63
2023/05/31 16:19:36;;;;;;;;;;;;;;;;;;5071090;28;19920;-64
2023/05/31 16:22:02;;;;;;;;;;;;;;;;;;5071441;28;19924;-64
2023/05/31 16:24:28;;;;;;;;;;;;;;;;;;5071398;28;19977;-63
2023/05/31 16:26:54;;;;;;;;;;;;;;;;;;5071416;28;20003;-64
2023/05/31 16:29:20;;;;;;;;;;;;;;;;;;5056654;28;19920;-64
2023/05/31 16:31:46;;;;;;;;;;;;;;;;;;5074733;28;20010;-64
2023/05/31 16:34:12;;;;;;;;;;;;;;;;;;5074628;28;19924;-63
2023/05/31 16:36:38;;;;;;;;;;;;;;;;;;5075009;28;19921;-64